Terminal Aerodrome Forecast
Issued by NWS

Home | Current Version | Previous Version | Text Only | Print | Product List | Glossary On
Versions: 1 2 3 4 5 6 7 8 9 10 11 12 13 14 15 16 17 18 19 20 21 22 23 24
000
FTUS45 KBOI 282327
TAFBKE
TAF
KBKE 282327Z 2900/2924 VRB05KT P6SM SCT200
     FM290300 VRB03KT 6SM BR FEW015
      TEMPO 2907/2909 1SM BR BKN005
     FM290900 VRB03KT 1/2SM FZFG OVC003
     FM291700 VRB03KT P6SM SCT003=

USA.gov is the U.S. government's official web portal to all federal, state and local government web resources and services.